Time;durP1;ratioP1;P1;durP2;ratioP2;P2;SDS_P1;SDS_P2;PMS_P1;PMS_P2;Temp;Humidity;BMP_temperature;BMP_pressure;BME280_temperature;BME280_humidity;BME280_pressure;Samples;Min_cycle;Max_cycle;Signal;HPM_P1;HPM_P2
2022/06/22 00:01:30;;;;;;;;;;;21.20;58.60;;;;;;5144590;27;19927;-45
2022/06/22 00:03:57;;;;;;;;;;;21.30;58.20;;;;;;5169160;27;19926;-45
2022/06/22 00:06:28;;;;;;;;;;;21.20;58.50;;;;;;5163911;27;19947;-47
2022/06/22 00:08:54;;;;;;;;;;;21.20;58.60;;;;;;5143181;27;19923;-46
2022/06/22 00:11:20;;;;;;;;;;;21.30;58.20;;;;;;5169303;27;20357;-45
2022/06/22 00:13:57;;;;;;;;;;;21.30;58.40;;;;;;5163719;27;19926;-45
2022/06/22 00:16:24;;;;;;;;;;;21.20;58.90;;;;;;5162428;27;20196;-45
2022/06/22 00:18:50;;;;;;;;;;;21.10;59.00;;;;;;5149150;27;19936;-47
2022/06/22 00:21:36;;;;;;;;;;;21.30;58.50;;;;;;5144653;27;19929;-47
2022/06/22 00:24:20;;;;;;;;;;;21.30;58.70;;;;;;5144528;27;19966;-49
2022/06/22 00:26:46;;;;;;;;;;;21.20;58.80;;;;;;5168965;27;20366;-51
2022/06/22 00:29:12;;;;;;;;;;;21.10;58.70;;;;;;5163915;27;19922;-46
2022/06/22 00:31:39;;;;;;;;;;;21.20;58.80;;;;;;5164891;27;20414;-53
2022/06/22 00:34:10;;;;;;;;;;;21.20;58.90;;;;;;5167869;27;20009;-51
2022/06/22 00:36:47;;;;;;;;;;;21.20;58.80;;;;;;5161605;27;19930;-45
2022/06/22 00:39:12;;;;;;;;;;;21.20;58.70;;;;;;5167967;27;19929;-48
2022/06/22 00:41:38;;;;;;;;;;;21.10;59.00;;;;;;5144427;27;19923;-48
2022/06/22 00:44:07;;;;;;;;;;;21.30;58.50;;;;;;5163631;27;19930;-47
2022/06/22 00:46:33;;;;;;;;;;;21.20;58.70;;;;;;5168878;27;20017;-44
2022/06/22 00:48:59;;;;;;;;;;;21.20;59.00;;;;;;5144650;27;20410;-46
2022/06/22 00:51:30;;;;;;;;;;;21.20;58.70;;;;;;5144066;27;19927;-48
2022/06/22 00:54:00;;;;;;;;;;;21.30;58.70;;;;;;5166673;27;20022;-46
2022/06/22 00:56:25;;;;;;;;;;;21.30;58.80;;;;;;5143633;27;19923;-46
2022/06/22 00:58:57;;;;;;;;;;;21.20;58.80;;;;;;5162844;27;19946;-49
2022/06/22 01:01:24;;;;;;;;;;;21.20;58.70;;;;;;5168329;27;19931;-45
2022/06/22 01:03:55;;;;;;;;;;;21.10;59.10;;;;;;5162682;27;19933;-46
2022/06/22 01:06:26;;;;;;;;;;;21.10;59.00;;;;;;5167473;27;19933;-53
2022/06/22 01:08:58;;;;;;;;;;;21.20;58.70;;;;;;5166366;27;20013;-50
2022/06/22 01:14:11;;;;;;;;;;;21.20;58.70;;;;;;5164404;27;19931;-53
2022/06/22 01:16:37;;;;;;;;;;;21.20;58.90;;;;;;5147329;27;20384;-45
2022/06/22 01:19:23;;;;;;;;;;;21.20;59.00;;;;;;5143803;27;20009;-46
2022/06/22 01:21:51;;;;;;;;;;;21.20;59.00;;;;;;5149107;27;20345;-56
2022/06/22 01:24:17;;;;;;;;;;;21.20;59.10;;;;;;5146530;27;19967;-44
2022/06/22 01:26:43;;;;;;;;;;;21.10;59.30;;;;;;5162597;27;20358;-45
2022/06/22 01:29:19;;;;;;;;;;;21.30;58.70;;;;;;5167907;27;19923;-48
2022/06/22 01:32:12;;;;;;;;;;;21.20;59.20;;;;;;5160962;27;20439;-46
2022/06/22 01:34:40;;;;;;;;;;;21.20;59.10;;;;;;5143597;27;20064;-47
2022/06/22 01:37:06;;;;;;;;;;;21.20;59.30;;;;;;5147962;27;20335;-49
2022/06/22 01:39:32;;;;;;;;;;;21.20;59.20;;;;;;5162840;27;20950;-50
2022/06/22 01:41:59;;;;;;;;;;;21.30;59.00;;;;;;5162701;27;19962;-46
2022/06/22 01:44:46;;;;;;;;;;;21.30;59.40;;;;;;5149228;27;19930;-46
2022/06/22 01:47:31;;;;;;;;;;;21.40;58.90;;;;;;5144601;27;19934;-44
2022/06/22 01:50:05;;;;;;;;;;;21.30;59.00;;;;;;5160296;27;19969;-45
2022/06/22 01:52:37;;;;;;;;;;;21.20;59.30;;;;;;5148739;27;19935;-45
2022/06/22 01:55:05;;;;;;;;;;;21.30;59.00;;;;;;5143194;27;19926;-47
2022/06/22 01:57:33;;;;;;;;;;;21.30;59.30;;;;;;5162266;27;20377;-47
2022/06/22 02:00:06;;;;;;;;;;;21.30;59.00;;;;;;5167869;27;19932;-46
2022/06/22 02:02:44;;;;;;;;;;;21.30;59.10;;;;;;5162350;27;19946;-46
2022/06/22 02:05:17;;;;;;;;;;;21.20;59.10;;;;;;5125394;27;19923;-45
2022/06/22 02:07:44;;;;;;;;;;;21.30;58.60;;;;;;5165607;27;20009;-47
2022/06/22 02:10:15;;;;;;;;;;;21.30;58.60;;;;;;5142774;27;20009;-49
2022/06/22 02:12:46;;;;;;;;;;;21.20;59.00;;;;;;5143267;27;20369;-47
2022/06/22 02:15:32;;;;;;;;;;;21.20;58.80;;;;;;5167814;27;19981;-47
2022/06/22 02:17:57;;;;;;;;;;;21.10;59.00;;;;;;5143925;27;19926;-45
2022/06/22 02:20:31;;;;;;;;;;;21.10;59.10;;;;;;5142132;27;20398;-46
2022/06/22 02:22:59;;;;;;;;;;;21.20;58.80;;;;;;5171448;27;19981;-46
2022/06/22 02:25:25;;;;;;;;;;;21.30;58.90;;;;;;5164500;27;19967;-46
2022/06/22 02:27:51;;;;;;;;;;;21.30;59.20;;;;;;5164764;27;19923;-48
2022/06/22 02:30:16;;;;;;;;;;;21.40;58.60;;;;;;5171159;27;20000;-45
2022/06/22 02:32:42;;;;;;;;;;;21.30;59.10;;;;;;5165617;27;19985;-46
2022/06/22 02:35:09;;;;;;;;;;;21.30;58.90;;;;;;5171196;27;20362;-46
2022/06/22 02:37:36;;;;;;;;;;;21.30;58.70;;;;;;5147150;27;19969;-49
2022/06/22 02:40:03;;;;;;;;;;;21.10;59.20;;;;;;5129014;27;19990;-47
2022/06/22 02:45:13;;;;;;;;;;;21.10;59.30;;;;;;5163976;27;19934;-46
2022/06/22 02:47:58;;;;;;;;;;;21.30;59.00;;;;;;5164851;27;20037;-46
2022/06/22 02:50:25;;;;;;;;;;;21.30;59.30;;;;;;5170854;27;19999;-46
2022/06/22 02:52:51;;;;;;;;;;;21.30;59.40;;;;;;5146998;27;19945;-45
2022/06/22 02:55:19;;;;;;;;;;;21.30;59.50;;;;;;5146615;27;20037;-46
2022/06/22 02:57:51;;;;;;;;;;;21.20;59.70;;;;;;5170834;27;20388;-47
2022/06/22 03:00:18;;;;;;;;;;;21.30;59.80;;;;;;5165287;27;20389;-47
2022/06/22 03:02:44;;;;;;;;;;;21.20;60.00;;;;;;5163077;27;20030;-48
2022/06/22 03:05:10;;;;;;;;;;;21.30;59.20;;;;;;5151167;27;19969;-45
2022/06/22 03:07:41;;;;;;;;;;;21.10;59.50;;;;;;5146011;27;19923;-48
2022/06/22 03:10:07;;;;;;;;;;;21.30;59.30;;;;;;5152045;27;19945;-48
2022/06/22 03:12:33;;;;;;;;;;;21.20;59.40;;;;;;5165013;27;19956;-48
2022/06/22 03:15:01;;;;;;;;;;;21.20;59.70;;;;;;5165228;27;19926;-46
2022/06/22 03:17:28;;;;;;;;;;;21.30;59.20;;;;;;5149781;27;20017;-48
2022/06/22 03:20:03;;;;;;;;;;;21.30;59.10;;;;;;5144938;27;19923;-47
2022/06/22 03:22:36;;;;;;;;;;;21.00;59.60;;;;;;5160068;27;19942;-48
2022/06/22 03:25:04;;;;;;;;;;;21.20;59.40;;;;;;5169854;27;20280;-47
2022/06/22 03:27:32;;;;;;;;;;;21.30;59.30;;;;;;5164575;27;20006;-47
2022/06/22 03:30:02;;;;;;;;;;;21.30;59.30;;;;;;5164891;27;20081;-45
2022/06/22 03:32:30;;;;;;;;;;;21.10;59.70;;;;;;5165404;27;19923;-50
2022/06/22 03:35:04;;;;;;;;;;;21.10;59.40;;;;;;5164598;27;19927;-46
2022/06/22 03:37:32;;;;;;;;;;;21.30;59.00;;;;;;5145928;27;20010;-53
2022/06/22 03:40:00;;;;;;;;;;;21.30;58.90;;;;;;5149211;27;19923;-45
2022/06/22 03:42:28;;;;;;;;;;;21.00;59.20;;;;;;5144927;27;19933;-47
2022/06/22 03:44:55;;;;;;;;;;;21.10;59.10;;;;;;5150129;27;19936;-48
2022/06/22 03:47:38;;;;;;;;;;;21.20;58.90;;;;;;5164338;27;19922;-47
2022/06/22 03:50:23;;;;;;;;;;;21.10;59.30;;;;;;5164524;27;19923;-46
2022/06/22 03:52:51;;;;;;;;;;;21.20;58.90;;;;;;5149732;27;20474;-53
2022/06/22 03:55:20;;;;;;;;;;;21.20;58.90;;;;;;5167044;27;20318;-46
2022/06/22 03:57:49;;;;;;;;;;;21.10;59.20;;;;;;5162216;27;20014;-47
2022/06/22 04:00:15;;;;;;;;;;;21.20;59.10;;;;;;5168712;27;19982;-46
2022/06/22 04:02:41;;;;;;;;;;;21.20;59.20;;;;;;5145070;27;19938;-50
2022/06/22 04:05:07;;;;;;;;;;;21.10;59.40;;;;;;5163905;27;20381;-46
2022/06/22 04:07:36;;;;;;;;;;;21.30;59.00;;;;;;5169367;27;19927;-45
2022/06/22 04:10:02;;;;;;;;;;;21.30;58.70;;;;;;5143268;27;20453;-48
2022/06/22 04:12:35;;;;;;;;;;;21.20;58.80;;;;;;5144794;27;20429;-46
2022/06/22 04:15:05;;;;;;;;;;;21.10;58.80;;;;;;5130074;27;19927;-49
2022/06/22 04:17:34;;;;;;;;;;;21.30;58.10;;;;;;5141509;27;20378;-46
2022/06/22 04:20:18;;;;;;;;;;;21.20;58.40;;;;;;5146415;27;19923;-52
2022/06/22 04:22:45;;;;;;;;;;;21.20;58.20;;;;;;5168598;27;20315;-46
2022/06/22 04:25:13;;;;;;;;;;;21.10;58.00;;;;;;5163389;27;20319;-45
2022/06/22 04:27:39;;;;;;;;;;;21.20;57.80;;;;;;5167586;27;20217;-56
2022/06/22 04:30:09;;;;;;;;;;;21.10;57.70;;;;;;5146837;27;19997;-47
2022/06/22 04:32:43;;;;;;;;;;;21.20;57.30;;;;;;5142861;27;19929;-47
2022/06/22 04:35:21;;;;;;;;;;;21.20;56.80;;;;;;5166598;27;19971;-47
2022/06/22 04:37:48;;;;;;;;;;;21.10;57.00;;;;;;5164007;27;20932;-47
2022/06/22 04:40:17;;;;;;;;;;;21.10;56.80;;;;;;5144384;27;19931;-47
2022/06/22 04:42:43;;;;;;;;;;;21.00;56.60;;;;;;5169000;27;19930;-46
2022/06/22 04:45:16;;;;;;;;;;;21.10;56.70;;;;;;5163090;27;20329;-46
2022/06/22 04:47:42;;;;;;;;;;;21.00;56.60;;;;;;5144627;27;19923;-45
2022/06/22 04:50:08;;;;;;;;;;;21.00;57.10;;;;;;5168484;27;20275;-46
2022/06/22 04:52:35;;;;;;;;;;;21.00;57.10;;;;;;5142801;27;19996;-49
2022/06/22 04:55:01;;;;;;;;;;;21.00;57.00;;;;;;5161967;27;20101;-46
2022/06/22 04:57:29;;;;;;;;;;;20.90;57.10;;;;;;5168184;27;20916;-46
2022/06/22 04:59:55;;;;;;;;;;;20.90;56.80;;;;;;5162807;27;20384;-47
2022/06/22 05:02:22;;;;;;;;;;;20.80;56.90;;;;;;5168445;27;19923;-47
2022/06/22 05:04:49;;;;;;;;;;;20.70;57.10;;;;;;5163239;27;19927;-45
2022/06/22 05:07:29;;;;;;;;;;;20.80;57.10;;;;;;5162951;27;19927;-45
2022/06/22 05:09:57;;;;;;;;;;;20.80;57.30;;;;;;5167826;27;20382;-48
2022/06/22 05:12:24;;;;;;;;;;;20.70;57.90;;;;;;5161579;27;20288;-47
2022/06/22 05:14:50;;;;;;;;;;;20.70;58.00;;;;;;5143727;27;19933;-46
2022/06/22 05:17:19;;;;;;;;;;;20.80;57.70;;;;;;5149647;27;19923;-46
2022/06/22 05:19:48;;;;;;;;;;;20.80;58.00;;;;;;5143332;27;20309;-44
2022/06/22 05:22:14;;;;;;;;;;;20.70;58.00;;;;;;5143121;27;20066;-46
2022/06/22 05:24:43;;;;;;;;;;;20.60;58.20;;;;;;5168522;27;19933;-47
2022/06/22 05:27:09;;;;;;;;;;;20.70;57.80;;;;;;5162635;27;20528;-46
2022/06/22 05:29:36;;;;;;;;;;;20.70;57.90;;;;;;5164684;27;20017;-55
2022/06/22 05:32:02;;;;;;;;;;;20.70;58.00;;;;;;5163883;27;20025;-47
2022/06/22 05:34:29;;;;;;;;;;;20.60;57.80;;;;;;5143492;27;20297;-47
2022/06/22 05:36:57;;;;;;;;;;;20.70;57.80;;;;;;5167808;27;20055;-44
2022/06/22 05:39:23;;;;;;;;;;;20.70;57.80;;;;;;5143682;27;19986;-46
2022/06/22 05:41:48;;;;;;;;;;;20.60;58.00;;;;;;5144116;27;19922;-45
2022/06/22 05:44:15;;;;;;;;;;;20.70;57.80;;;;;;5167801;27;20301;-44
2022/06/22 05:46:42;;;;;;;;;;;20.70;58.00;;;;;;5161473;27;20005;-46
2022/06/22 05:49:17;;;;;;;;;;;20.70;57.80;;;;;;5160670;27;20317;-47
2022/06/22 05:51:45;;;;;;;;;;;20.70;57.70;;;;;;5149419;27;19927;-47
2022/06/22 05:54:21;;;;;;;;;;;20.60;57.80;;;;;;5162178;27;19923;-45
2022/06/22 05:56:52;;;;;;;;;;;20.70;57.90;;;;;;5146277;27;19929;-51
2022/06/22 05:59:23;;;;;;;;;;;20.60;57.90;;;;;;5172050;27;20017;-45
2022/06/22 06:02:03;;;;;;;;;;;20.70;57.70;;;;;;5166512;27;19945;-48
2022/06/22 06:04:29;;;;;;;;;;;20.60;57.90;;;;;;5150360;27;20005;-55
2022/06/22 06:06:56;;;;;;;;;;;20.60;57.80;;;;;;5167573;27;20251;-49
2022/06/22 06:09:22;;;;;;;;;;;20.60;58.30;;;;;;5165530;27;19937;-44
2022/06/22 06:11:49;;;;;;;;;;;20.80;57.90;;;;;;5171177;27;20342;-45
2022/06/22 06:14:26;;;;;;;;;;;20.70;58.20;;;;;;5166300;27;20010;-49
2022/06/22 06:16:52;;;;;;;;;;;20.80;58.10;;;;;;5147420;27;19927;-46
2022/06/22 06:19:22;;;;;;;;;;;20.80;57.80;;;;;;5135892;27;20009;-44
2022/06/22 06:21:48;;;;;;;;;;;20.90;57.70;;;;;;5165752;27;19926;-45
2022/06/22 06:27:34;;;;;;;;;;;20.90;57.60;;;;;;5163991;27;20309;-47
2022/06/22 06:27:35;;;;;;;;;;;20.80;57.60;;;;;;5092129;27;19922;-47
2022/06/22 06:30:15;;;;;;;;;;;21.00;57.20;;;;;;5165736;27;20010;-46
2022/06/22 06:32:46;;;;;;;;;;;20.80;58.00;;;;;;5146847;27;19927;-48
2022/06/22 06:35:32;;;;;;;;;;;20.70;57.80;;;;;;5152090;27;19982;-46
2022/06/22 06:38:11;;;;;;;;;;;20.80;57.40;;;;;;5170623;27;19999;-44
2022/06/22 06:40:43;;;;;;;;;;;20.80;57.30;;;;;;5145692;27;20302;-46
2022/06/22 06:43:17;;;;;;;;;;;20.80;57.20;;;;;;5166975;27;19923;-56
2022/06/22 06:45:43;;;;;;;;;;;20.80;57.20;;;;;;5151207;27;20396;-45
2022/06/22 06:48:12;;;;;;;;;;;21.00;57.00;;;;;;5164865;27;19923;-45
2022/06/22 06:50:39;;;;;;;;;;;21.00;57.00;;;;;;5152125;27;19963;-48
2022/06/22 06:53:23;;;;;;;;;;;20.80;57.50;;;;;;5165267;27;19960;-48
2022/06/22 06:55:50;;;;;;;;;;;20.80;57.60;;;;;;5165484;27;19922;-45
2022/06/22 06:58:32;;;;;;;;;;;20.90;57.20;;;;;;5152296;27;19927;-46
2022/06/22 07:00:57;;;;;;;;;;;20.80;57.60;;;;;;5163622;27;20189;-48
2022/06/22 07:03:28;;;;;;;;;;;20.80;57.30;;;;;;5163840;27;20431;-48
2022/06/22 07:05:54;;;;;;;;;;;20.60;57.50;;;;;;5170044;27;19927;-45
2022/06/22 07:08:22;;;;;;;;;;;20.70;57.30;;;;;;5146360;27;19929;-46
2022/06/22 07:10:55;;;;;;;;;;;20.70;57.40;;;;;;5144375;27;19929;-45
2022/06/22 07:13:27;;;;;;;;;;;20.50;57.80;;;;;;5152108;27;19933;-45
2022/06/22 07:15:55;;;;;;;;;;;20.50;58.00;;;;;;5164762;27;19927;-49
2022/06/22 07:18:22;;;;;;;;;;;20.40;58.00;;;;;;5145675;27;19926;-44
2022/06/22 07:20:48;;;;;;;;;;;20.60;58.10;;;;;;5168321;27;20006;-44
2022/06/22 07:23:19;;;;;;;;;;;20.60;57.80;;;;;;5145511;27;19931;-45
2022/06/22 07:25:55;;;;;;;;;;;20.80;57.80;;;;;;5167409;27;19978;-51
2022/06/22 07:28:23;;;;;;;;;;;20.80;57.80;;;;;;5170415;27;20310;-45
2022/06/22 07:30:51;;;;;;;;;;;20.80;58.10;;;;;;5164666;27;19926;-45
2022/06/22 07:33:21;;;;;;;;;;;20.90;58.00;;;;;;5170184;27;20296;-44
2022/06/22 07:35:48;;;;;;;;;;;20.80;58.00;;;;;;5164469;27;19929;-44
2022/06/22 07:38:21;;;;;;;;;;;20.70;58.20;;;;;;5162332;27;19930;-46
2022/06/22 07:43:32;;;;;;;;;;;20.60;58.20;;;;;;5164043;27;19930;-48
2022/06/22 07:45:58;;;;;;;;;;;20.80;57.90;;;;;;5164107;27;20039;-43
2022/06/22 07:48:24;;;;;;;;;;;20.80;57.90;;;;;;5149267;27;20298;-44
2022/06/22 07:50:56;;;;;;;;;;;20.80;57.80;;;;;;5145573;27;19973;-44
2022/06/22 07:53:25;;;;;;;;;;;20.80;58.00;;;;;;5164277;27;19929;-47
2022/06/22 07:55:52;;;;;;;;;;;20.80;57.80;;;;;;5149219;27;20006;-47
2022/06/22 07:58:26;;;;;;;;;;;20.80;57.80;;;;;;5143881;27;20009;-47
2022/06/22 08:00:57;;;;;;;;;;;20.80;58.20;;;;;;5145059;27;20178;-47
2022/06/22 08:03:29;;;;;;;;;;;20.80;58.20;;;;;;5146621;27;20006;-45
2022/06/22 08:05:56;;;;;;;;;;;20.80;58.50;;;;;;5163766;27;19926;-45
2022/06/22 08:08:23;;;;;;;;;;;20.70;58.00;;;;;;5147494;27;19935;-52
2022/06/22 08:10:55;;;;;;;;;;;20.60;58.10;;;;;;5149285;27;20315;-45
2022/06/22 08:13:22;;;;;;;;;;;20.60;57.90;;;;;;5144689;27;20270;-46
2022/06/22 08:16:05;;;;;;;;;;;20.50;57.70;;;;;;5147648;27;20507;-47
2022/06/22 08:18:30;;;;;;;;;;;20.60;57.60;;;;;;5147044;27;19923;-49
2022/06/22 08:20:57;;;;;;;;;;;20.40;57.70;;;;;;5163674;27;20297;-45
2022/06/22 08:23:23;;;;;;;;;;;20.60;57.30;;;;;;5169017;27;20018;-48
2022/06/22 08:25:50;;;;;;;;;;;20.70;57.20;;;;;;5144922;27;19955;-46
2022/06/22 08:28:17;;;;;;;;;;;20.50;57.70;;;;;;5163476;27;20374;-47
2022/06/22 08:30:42;;;;;;;;;;;20.60;57.20;;;;;;5168877;27;19923;-47
2022/06/22 08:33:10;;;;;;;;;;;20.50;57.50;;;;;;5142846;27;20412;-46
2022/06/22 08:35:41;;;;;;;;;;;20.30;57.60;;;;;;5161292;27;21290;-45
2022/06/22 08:38:07;;;;;;;;;;;20.50;57.20;;;;;;5148956;27;19937;-44
2022/06/22 08:40:36;;;;;;;;;;;20.50;57.40;;;;;;5144350;27;20384;-44
2022/06/22 08:43:21;;;;;;;;;;;20.40;57.50;;;;;;5168728;27;20021;-48
2022/06/22 08:46:03;;;;;;;;;;;20.40;57.60;;;;;;5150550;27;19929;-47
2022/06/22 08:48:38;;;;;;;;;;;20.50;57.60;;;;;;5144626;27;20109;-47
2022/06/22 08:51:16;;;;;;;;;;;20.30;57.70;;;;;;5161593;27;19922;-45
2022/06/22 08:53:47;;;;;;;;;;;20.60;57.60;;;;;;5167300;27;19974;-45
2022/06/22 08:56:22;;;;;;;;;;;20.70;57.30;;;;;;5143974;27;19929;-45
2022/06/22 08:58:48;;;;;;;;;;;20.60;57.50;;;;;;5162820;27;19923;-44
2022/06/22 09:01:19;;;;;;;;;;;20.60;57.50;;;;;;5168480;27;19934;-44
2022/06/22 09:03:51;;;;;;;;;;;20.70;57.40;;;;;;5163149;27;20050;-47
2022/06/22 09:06:23;;;;;;;;;;;20.70;57.20;;;;;;5168276;27;19923;-51
2022/06/22 09:08:52;;;;;;;;;;;20.70;57.40;;;;;;5164659;27;20174;-44
2022/06/22 09:11:31;;;;;;;;;;;20.70;57.40;;;;;;5160832;27;19926;-47
2022/06/22 09:14:01;;;;;;;;;;;20.70;57.10;;;;;;5148834;27;19949;-46
2022/06/22 09:16:40;;;;;;;;;;;20.70;56.70;;;;;;5143849;27;20710;-45
2022/06/22 09:19:15;;;;;;;;;;;20.70;56.30;;;;;;5162707;27;19922;-45
2022/06/22 09:21:44;;;;;;;;;;;20.60;56.10;;;;;;5168173;27;19937;-45
2022/06/22 09:24:20;;;;;;;;;;;20.60;55.90;;;;;;5143279;27;20528;-43
2022/06/22 09:26:52;;;;;;;;;;;20.30;56.40;;;;;;5162312;27;20004;-50
2022/06/22 09:29:21;;;;;;;;;;;20.30;56.40;;;;;;5165930;27;20382;-47
2022/06/22 09:31:50;;;;;;;;;;;20.30;56.90;;;;;;5164481;27;19927;-43
2022/06/22 09:34:16;;;;;;;;;;;20.40;57.00;;;;;;5166455;27;19926;-46
2022/06/22 09:36:45;;;;;;;;;;;20.50;56.90;;;;;;5172267;27;20438;-43
2022/06/22 09:39:20;;;;;;;;;;;20.60;56.80;;;;;;5166771;27;19922;-44
2022/06/22 09:41:50;;;;;;;;;;;20.50;57.00;;;;;;5166894;27;20014;-49
2022/06/22 09:44:34;;;;;;;;;;;20.50;57.00;;;;;;5172079;27;20397;-44
2022/06/22 09:47:11;;;;;;;;;;;20.40;57.00;;;;;;5164400;27;20449;-46
2022/06/22 09:49:50;;;;;;;;;;;20.40;57.20;;;;;;5147186;27;20392;-46
2022/06/22 09:52:15;;;;;;;;;;;20.50;56.90;;;;;;5171589;27;20334;-43
2022/06/22 09:57:49;;;;;;;;;;;20.40;57.50;;;;;;5166520;27;19931;-45
2022/06/22 10:00:17;;;;;;;;;;;20.50;57.20;;;;;;5172040;27;19966;-48
2022/06/22 10:02:43;;;;;;;;;;;20.30;57.30;;;;;;5147715;27;20378;-47
2022/06/22 10:05:20;;;;;;;;;;;20.20;55.80;;;;;;5164361;27;19947;-48
2022/06/22 10:07:49;;;;;;;;;;;20.10;54.80;;;;;;5152425;27;20057;-46
2022/06/22 10:10:20;;;;;;;;;;;20.20;54.00;;;;;;5147421;27;19931;-45
2022/06/22 10:12:49;;;;;;;;;;;20.10;53.60;;;;;;5166167;27;20452;-46
2022/06/22 10:15:15;;;;;;;;;;;20.10;53.40;;;;;;5171512;27;19931;-47
2022/06/22 10:17:41;;;;;;;;;;;20.20;57.00;;;;;;5166102;27;19971;-47
2022/06/22 10:20:17;;;;;;;;;;;20.90;60.80;;;;;;5166109;27;19994;-47
2022/06/22 10:23:04;;;;;;;;;;;21.60;62.20;;;;;;5151477;27;20429;-47
2022/06/22 10:25:34;;;;;;;;;;;21.40;59.60;;;;;;5164473;27;20029;-46
2022/06/22 10:28:19;;;;;;;;;;;20.90;57.50;;;;;;5146882;27;20513;-44
2022/06/22 10:30:51;;;;;;;;;;;20.70;55.90;;;;;;5171228;27;19933;-47
2022/06/22 10:33:20;;;;;;;;;;;20.50;54.80;;;;;;5165596;27;20068;-49
2022/06/22 10:35:57;;;;;;;;;;;20.10;54.50;;;;;;5147417;27;20071;-47
2022/06/22 10:38:42;;;;;;;;;;;20.10;54.20;;;;;;5171121;27;20387;-47
2022/06/22 10:46:50;;;;;;;;;;;20.10;53.30;;;;;;5171118;27;20307;-48
2022/06/22 10:49:35;;;;;;;;;;;20.10;56.30;;;;;;5146948;27;20009;-52
2022/06/22 10:52:14;;;;;;;;;;;20.90;61.10;;;;;;5165539;27;19926;-49
2022/06/22 10:54:40;;;;;;;;;;;21.60;63.00;;;;;;5171167;27;19933;-52
2022/06/22 10:57:06;;;;;;;;;;;21.50;61.20;;;;;;5165967;27;20315;-50
2022/06/22 10:59:32;;;;;;;;;;;20.80;58.60;;;;;;5163856;27;20373;-50
2022/06/22 11:02:16;;;;;;;;;;;20.80;56.60;;;;;;5169526;27;19923;-52
2022/06/22 11:04:54;;;;;;;;;;;20.30;55.80;;;;;;5164713;27;20010;-50
2022/06/22 11:07:26;;;;;;;;;;;20.10;55.10;;;;;;5165002;27;19934;-46
2022/06/22 11:09:52;;;;;;;;;;;19.90;54.40;;;;;;5170602;27;19923;-53
2022/06/22 11:12:21;;;;;;;;;;;20.30;59.20;;;;;;5165291;27;20354;-51
2022/06/22 11:15:06;;;;;;;;;;;21.10;63.10;;;;;;5164960;27;19960;-47
2022/06/22 11:17:47;;;;;;;;;;;21.70;64.20;;;;;;5169146;27;20438;-47
2022/06/22 11:20:33;;;;;;;;;;;21.10;59.90;;;;;;5163450;27;19930;-48
2022/06/22 11:23:03;;;;;;;;;;;20.70;57.20;;;;;;5111349;27;20348;-48
2022/06/22 11:31:09;;;;;;;;;;;20.00;54.60;;;;;;5164858;27;20202;-47
2022/06/22 11:33:35;;;;;;;;;;;20.00;54.20;;;;;;5164760;27;19929;-53
2022/06/22 11:36:19;;;;;;;;;;;20.10;53.30;;;;;;5168694;27;19922;-49
2022/06/22 11:39:04;;;;;;;;;;;20.00;53.30;;;;;;5163277;27;19926;-46
2022/06/22 11:41:42;;;;;;;;;;;19.90;53.10;;;;;;5145548;27;20244;-48
2022/06/22 11:44:17;;;;;;;;;;;20.50;59.30;;;;;;5150528;27;20441;-49
2022/06/22 11:46:50;;;;;;;;;;;21.30;62.10;;;;;;5164286;27;19926;-45
2022/06/22 11:49:20;;;;;;;;;;;21.80;63.20;;;;;;5164681;27;20073;-45
2022/06/22 11:51:45;;;;;;;;;;;21.30;59.70;;;;;;5151223;27;20009;-44
2022/06/22 11:54:20;;;;;;;;;;;20.70;58.20;;;;;;5162188;27;19940;-46
2022/06/22 11:56:49;;;;;;;;;;;20.70;56.30;;;;;;5163870;27;19922;-52
2022/06/22 11:59:34;;;;;;;;;;;20.50;55.20;;;;;;5168927;27;20331;-46
2022/06/22 12:02:03;;;;;;;;;;;20.20;54.60;;;;;;5163698;27;19928;-46
2022/06/22 12:04:48;;;;;;;;;;;20.10;54.10;;;;;;5166203;27;19943;-54
2022/06/22 12:07:19;;;;;;;;;;;20.00;53.70;;;;;;5169392;27;19926;-46
2022/06/22 12:10:04;;;;;;;;;;;19.90;53.50;;;;;;5145073;27;20328;-45
2022/06/22 12:12:48;;;;;;;;;;;19.90;53.30;;;;;;5162686;27;20502;-53
2022/06/22 12:15:28;;;;;;;;;;;20.00;58.00;;;;;;5167578;27;20017;-46
2022/06/22 12:18:15;;;;;;;;;;;20.90;61.90;;;;;;5143533;27;19927;-48
2022/06/22 12:20:44;;;;;;;;;;;21.60;63.40;;;;;;5144877;27;19933;-46
2022/06/22 12:23:25;;;;;;;;;;;21.40;61.10;;;;;;5169109;27;20385;-50
2022/06/22 12:26:00;;;;;;;;;;;20.80;58.60;;;;;;5143591;27;19923;-46
2022/06/22 12:28:28;;;;;;;;;;;20.50;56.80;;;;;;5163403;27;19931;-46
2022/06/22 12:30:57;;;;;;;;;;;20.30;55.70;;;;;;5167892;27;20437;-48
2022/06/22 12:33:26;;;;;;;;;;;20.00;55.10;;;;;;5142858;27;19974;-47
2022/06/22 12:35:55;;;;;;;;;;;20.00;54.60;;;;;;5162652;27;19940;-45
2022/06/22 12:38:31;;;;;;;;;;;20.00;54.50;;;;;;5148138;27;20326;-47
2022/06/22 12:41:29;;;;;;;;;;;20.00;53.80;;;;;;5144634;27;19978;-44
2022/06/22 12:44:14;;;;;;;;;;;19.90;53.60;;;;;;5105650;27;19929;-47
2022/06/22 12:46:40;;;;;;;;;;;20.20;58.30;;;;;;5168467;27;19948;-49
2022/06/22 12:49:29;;;;;;;;;;;21.00;62.50;;;;;;5162298;27;19974;-46
2022/06/22 12:52:12;;;;;;;;;;;21.70;63.40;;;;;;5145923;27;20013;-47
2022/06/22 12:54:39;;;;;;;;;;;21.40;60.90;;;;;;5132329;27;19970;-44
2022/06/22 12:57:06;;;;;;;;;;;20.80;58.40;;;;;;5162460;27;20006;-44
2022/06/22 12:59:35;;;;;;;;;;;20.70;56.70;;;;;;5163103;27;19936;-45
2022/06/22 13:02:02;;;;;;;;;;;20.30;55.50;;;;;;5168276;27;19930;-45
2022/06/22 13:04:30;;;;;;;;;;;20.30;54.50;;;;;;5162190;27;19923;-46
2022/06/22 13:06:57;;;;;;;;;;;19.90;54.60;;;;;;5162423;27;19926;-46
2022/06/22 13:09:23;;;;;;;;;;;19.80;54.70;;;;;;5165809;27;20377;-49
2022/06/22 13:11:49;;;;;;;;;;;20.00;53.40;;;;;;5161711;27;19927;-47
2022/06/22 13:14:24;;;;;;;;;;;20.10;53.50;;;;;;5162299;27;20021;-50
2022/06/22 13:17:08;;;;;;;;;;;19.80;53.90;;;;;;5167958;27;19926;-49
2022/06/22 13:19:54;;;;;;;;;;;20.60;60.10;;;;;;5162790;27;19974;-49
2022/06/22 13:22:43;;;;;;;;;;;21.30;62.40;;;;;;5162204;27;19944;-50
2022/06/22 13:25:14;;;;;;;;;;;21.80;62.30;;;;;;5154147;27;19922;-47
2022/06/22 13:27:47;;;;;;;;;;;21.10;59.60;;;;;;5141833;27;20312;-51
2022/06/22 13:30:15;;;;;;;;;;;20.80;57.20;;;;;;5143355;27;19923;-47
2022/06/22 13:32:41;;;;;;;;;;;20.50;56.20;;;;;;5149121;27;19935;-47
2022/06/22 13:35:27;;;;;;;;;;;20.40;55.40;;;;;;5143503;27;19922;-50
2022/06/22 13:38:02;;;;;;;;;;;20.30;54.50;;;;;;5143934;27;19927;-49
2022/06/22 13:40:42;;;;;;;;;;;19.90;54.60;;;;;;5149585;27;19929;-49
2022/06/22 13:43:07;;;;;;;;;;;20.00;53.70;;;;;;5143500;27;19929;-46
2022/06/22 13:45:54;;;;;;;;;;;20.10;53.90;;;;;;5160375;27;19922;-45
2022/06/22 13:48:21;;;;;;;;;;;20.00;53.60;;;;;;5167075;27;19926;-51
2022/06/22 13:53:33;;;;;;;;;;;21.10;62.20;;;;;;5162263;27;19929;-52
2022/06/22 13:56:12;;;;;;;;;;;21.80;63.00;;;;;;5149047;27;19923;-48
2022/06/22 13:58:41;;;;;;;;;;;21.30;60.40;;;;;;5143518;27;19926;-46
2022/06/22 14:01:17;;;;;;;;;;;20.80;57.80;;;;;;5161916;27;19978;-52
2022/06/22 14:03:45;;;;;;;;;;;20.50;56.30;;;;;;5145242;27;20039;-48
2022/06/22 14:06:12;;;;;;;;;;;20.20;55.50;;;;;;5160796;27;19998;-51
2022/06/22 14:08:59;;;;;;;;;;;20.20;54.60;;;;;;5161635;27;20630;-50
2022/06/22 14:11:30;;;;;;;;;;;20.10;54.40;;;;;;5148291;27;19926;-48
2022/06/22 14:14:00;;;;;;;;;;;20.10;53.70;;;;;;5125788;27;20343;-46
2022/06/22 14:16:39;;;;;;;;;;;20.10;53.30;;;;;;5162335;27;19983;-45
2022/06/22 14:19:09;;;;;;;;;;;19.90;53.40;;;;;;5152754;27;20095;-50
2022/06/22 14:21:40;;;;;;;;;;;20.30;59.10;;;;;;5146093;27;19922;-53
2022/06/22 14:24:38;;;;;;;;;;;21.00;62.50;;;;;;5164576;27;19923;-53
2022/06/22 14:27:23;;;;;;;;;;;21.70;63.00;;;;;;5113025;27;19922;-46
2022/06/22 14:29:48;;;;;;;;;;;21.40;59.90;;;;;;5165960;27;20296;-48
2022/06/22 14:32:20;;;;;;;;;;;20.90;57.70;;;;;;5165995;27;19936;-48
2022/06/22 14:35:09;;;;;;;;;;;20.50;56.40;;;;;;5150865;27;20105;-47
2022/06/22 14:37:40;;;;;;;;;;;20.30;55.50;;;;;;5151629;27;19930;-46
2022/06/22 14:40:20;;;;;;;;;;;20.20;54.70;;;;;;5164001;27;19929;-47
2022/06/22 14:42:47;;;;;;;;;;;20.10;54.10;;;;;;5131703;27;19922;-48
2022/06/22 14:45:16;;;;;;;;;;;20.40;59.60;;;;;;5146505;27;19929;-48
2022/06/22 14:47:45;;;;;;;;;;;21.20;62.60;;;;;;5146786;27;19931;-49
2022/06/22 14:50:14;;;;;;;;;;;21.80;62.30;;;;;;5171051;27;20300;-48
2022/06/22 14:52:43;;;;;;;;;;;21.10;59.70;;;;;;5165490;27;19931;-52
2022/06/22 14:55:15;;;;;;;;;;;20.70;57.60;;;;;;5165150;27;19934;-47
2022/06/22 14:57:49;;;;;;;;;;;20.40;56.20;;;;;;5170125;27;19929;-46
2022/06/22 15:00:19;;;;;;;;;;;20.40;54.70;;;;;;5163407;27;20289;-48
2022/06/22 15:02:47;;;;;;;;;;;19.90;54.70;;;;;;5145940;27;20538;-46
2022/06/22 15:05:13;;;;;;;;;;;20.00;54.10;;;;;;5170146;27;19938;-47
2022/06/22 15:07:43;;;;;;;;;;;19.80;54.40;;;;;;5165038;27;19926;-48